Time;durP1;ratioP1;P1;durP2;ratioP2;P2;SDS_P1;SDS_P2;PMS_P1;PMS_P2;Temp;Humidity;BMP_temperature;BMP_pressure;BME280_temperature;BME280_humidity;BME280_pressure;Samples;Min_cycle;Max_cycle;Signal;HPM_P1;HPM_P2
2022/12/13 00:01:50;;;;;;;53.45;28.23;;;;;;;;;;5020792;28;20488;-73
2022/12/13 00:04:16;;;;;;;56.85;28.38;;;;;;;;;;5021801;28;20115;-73
2022/12/13 00:06:43;;;;;;;55.72;32.03;;;;;;;;;;5014842;28;20030;-73
2022/12/13 00:09:11;;;;;;;54.55;30.60;;;;;;;;;;5022000;28;20049;-73
2022/12/13 00:11:37;;;;;;;55.53;33.22;;;;;;;;;;5023431;28;20022;-73
2022/12/13 00:14:03;;;;;;;52.35;30.40;;;;;;;;;;5023435;28;20485;-73
2022/12/13 00:16:29;;;;;;;55.45;32.28;;;;;;;;;;5023973;28;20044;-73
2022/12/13 00:18:56;;;;;;;58.20;31.77;;;;;;;;;;5008162;28;20559;-73
2022/12/13 00:21:25;;;;;;;55.92;29.08;;;;;;;;;;5018031;28;20034;-73
2022/12/13 00:23:51;;;;;;;52.95;32.45;;;;;;;;;;5024994;28;20148;-73
2022/12/13 00:26:19;;;;;;;55.75;33.50;;;;;;;;;;5019332;28;20034;-72
2022/12/13 00:28:48;;;;;;;57.08;30.33;;;;;;;;;;5025523;28;20044;-73
2022/12/13 00:31:14;;;;;;;53.72;30.73;;;;;;;;;;5022552;28;20457;-73
2022/12/13 00:33:40;;;;;;;50.97;28.80;;;;;;;;;;5023143;28;20062;-73
2022/12/13 00:36:07;;;;;;;49.92;29.85;;;;;;;;;;5021667;28;20072;-74
2022/12/13 00:38:34;;;;;;;47.30;27.80;;;;;;;;;;5026028;28;20458;-73
2022/12/13 00:41:09;;;;;;;47.75;29.95;;;;;;;;;;5023513;28;20041;-73
2022/12/13 00:43:35;;;;;;;54.47;31.00;;;;;;;;;;5021106;28;20399;-73
2022/12/13 00:46:01;;;;;;;55.47;30.17;;;;;;;;;;5018528;28;20040;-74
2022/12/13 00:48:27;;;;;;;48.50;27.95;;;;;;;;;;5019418;28;20103;-73
2022/12/13 00:50:53;;;;;;;51.05;28.95;;;;;;;;;;5025297;28;20029;-73
2022/12/13 00:53:19;;;;;;;59.42;35.45;;;;;;;;;;5021260;28;20033;-73
2022/12/13 00:55:45;;;;;;;53.42;31.50;;;;;;;;;;5023861;28;20064;-73
2022/12/13 00:58:11;;;;;;;53.90;31.75;;;;;;;;;;5021292;28;20025;-73
2022/12/13 01:00:37;;;;;;;55.42;30.33;;;;;;;;;;5021042;28;20037;-73
2022/12/13 01:03:19;;;;;;;54.70;30.08;;;;;;;;;;5018066;28;20384;-73
2022/12/13 01:05:45;;;;;;;50.20;29.10;;;;;;;;;;5024607;28;20072;-73
2022/12/13 01:08:11;;;;;;;44.17;26.42;;;;;;;;;;5003497;28;20030;-73
2022/12/13 01:10:37;;;;;;;47.13;27.55;;;;;;;;;;5012857;28;20049;-73
2022/12/13 01:13:04;;;;;;;49.40;29.65;;;;;;;;;;5025422;28;20499;-73
2022/12/13 01:15:30;;;;;;;47.78;27.73;;;;;;;;;;5016978;28;20037;-73
2022/12/13 01:17:56;;;;;;;46.00;25.70;;;;;;;;;;5002616;28;20033;-73
2022/12/13 01:20:22;;;;;;;44.95;25.42;;;;;;;;;;5026781;28;20037;-73
2022/12/13 01:22:48;;;;;;;46.22;27.60;;;;;;;;;;5027402;28;20033;-72
2022/12/13 01:25:14;;;;;;;53.03;31.80;;;;;;;;;;5022911;28;20988;-73
2022/12/13 01:27:40;;;;;;;51.97;30.80;;;;;;;;;;5025932;28;20033;-73
2022/12/13 01:30:06;;;;;;;49.45;28.67;;;;;;;;;;5017145;28;20076;-73
2022/12/13 01:32:32;;;;;;;48.95;29.85;;;;;;;;;;5026655;28;20026;-73
2022/12/13 01:34:58;;;;;;;51.58;29.77;;;;;;;;;;5023303;28;20080;-73
2022/12/13 01:37:24;;;;;;;50.53;27.98;;;;;;;;;;5025253;28;20061;-73
2022/12/13 01:39:50;;;;;;;49.83;30.83;;;;;;;;;;5021197;28;20038;-73
2022/12/13 01:42:16;;;;;;;57.42;32.40;;;;;;;;;;5026705;28;20041;-74
2022/12/13 01:44:51;;;;;;;53.28;29.52;;;;;;;;;;5019211;28;20052;-73
2022/12/13 01:47:22;;;;;;;61.13;33.28;;;;;;;;;;5022683;28;20033;-73
2022/12/13 01:49:48;;;;;;;61.35;33.78;;;;;;;;;;5024188;28;20033;-73
2022/12/13 01:52:15;;;;;;;61.28;33.63;;;;;;;;;;5027559;28;20041;-73
2022/12/13 01:54:44;;;;;;;59.88;30.65;;;;;;;;;;5023438;28;20034;-73
2022/12/13 01:57:12;;;;;;;60.00;31.95;;;;;;;;;;5020047;28;20046;-73
2022/12/13 01:59:39;;;;;;;52.50;28.05;;;;;;;;;;5024710;28;20025;-73
2022/12/13 02:02:06;;;;;;;52.20;26.83;;;;;;;;;;5021287;28;20510;-73
2022/12/13 02:04:59;;;;;;;54.47;30.25;;;;;;;;;;5026460;28;20052;-73
2022/12/13 02:07:27;;;;;;;48.78;29.75;;;;;;;;;;4993819;28;20941;-73
2022/12/13 02:09:55;;;;;;;61.78;31.83;;;;;;;;;;4997695;28;20074;-73
2022/12/13 02:12:21;;;;;;;52.42;29.40;;;;;;;;;;5022007;28;20040;-72
2022/12/13 02:14:47;;;;;;;50.75;28.77;;;;;;;;;;5024048;28;20959;-73
2022/12/13 02:17:23;;;;;;;59.55;33.30;;;;;;;;;;5003088;28;20039;-73
2022/12/13 02:20:12;;;;;;;61.97;33.15;;;;;;;;;;5023858;28;20041;-73
2022/12/13 02:23:02;;;;;;;54.28;29.42;;;;;;;;;;5023216;28;20499;-73
2022/12/13 02:25:46;;;;;;;51.13;29.75;;;;;;;;;;4981336;28;20657;-73
2022/12/13 02:28:20;;;;;;;50.17;28.42;;;;;;;;;;5019417;28;20025;-73
2022/12/13 02:30:50;;;;;;;49.65;28.65;;;;;;;;;;5022209;28;20416;-73
2022/12/13 02:33:19;;;;;;;45.85;26.95;;;;;;;;;;5025482;28;20587;-73
2022/12/13 02:35:50;;;;;;;48.28;27.73;;;;;;;;;;5025845;28;20041;-73
2022/12/13 02:38:29;;;;;;;48.65;29.60;;;;;;;;;;5025834;28;20045;-73
2022/12/13 02:41:00;;;;;;;46.60;27.70;;;;;;;;;;5020853;28;20037;-73
2022/12/13 02:43:28;;;;;;;51.40;30.25;;;;;;;;;;5024329;28;20036;-73
2022/12/13 02:45:57;;;;;;;51.65;28.83;;;;;;;;;;5018416;28;20515;-73
2022/12/13 02:48:26;;;;;;;47.47;27.17;;;;;;;;;;5022357;28;20080;-73
2022/12/13 02:50:53;;;;;;;50.88;30.48;;;;;;;;;;5023025;28;22084;-73
2022/12/13 02:53:20;;;;;;;46.97;28.02;;;;;;;;;;5019653;28;20025;-73
2022/12/13 02:55:46;;;;;;;55.20;30.90;;;;;;;;;;5021962;28;20053;-73
2022/12/13 02:58:13;;;;;;;55.30;29.75;;;;;;;;;;5019686;28;20025;-73
2022/12/13 03:00:51;;;;;;;53.60;30.70;;;;;;;;;;5020126;28;20044;-73
2022/12/13 03:03:25;;;;;;;49.85;29.30;;;;;;;;;;5023820;28;20045;-73
2022/12/13 03:08:49;;;;;;;46.17;28.00;;;;;;;;;;5015990;28;20080;-73
2022/12/13 03:11:17;;;;;;;53.03;28.73;;;;;;;;;;5020895;28;20041;-73
2022/12/13 03:13:54;;;;;;;52.05;30.88;;;;;;;;;;5025236;28;20036;-73
2022/12/13 03:16:37;;;;;;;50.55;29.40;;;;;;;;;;5024934;28;20137;-73
2022/12/13 03:19:05;;;;;;;53.28;30.77;;;;;;;;;;5023350;28;20037;-73
2022/12/13 03:21:42;;;;;;;52.53;29.00;;;;;;;;;;5021461;28;20591;-73
2022/12/13 03:24:08;;;;;;;48.60;27.42;;;;;;;;;;5016273;28;20144;-73
2022/12/13 03:26:35;;;;;;;50.33;27.13;;;;;;;;;;5023820;28;20110;-73
2022/12/13 03:29:01;;;;;;;48.47;29.42;;;;;;;;;;5023074;28;20042;-73
2022/12/13 03:31:27;;;;;;;55.45;30.35;;;;;;;;;;5022056;28;20029;-73
2022/12/13 03:33:53;;;;;;;51.78;30.38;;;;;;;;;;5021411;28;20365;-73
2022/12/13 03:36:19;;;;;;;53.45;30.27;;;;;;;;;;5015194;28;20112;-73
2022/12/13 03:38:46;;;;;;;55.85;31.08;;;;;;;;;;5019833;28;20037;-73
2022/12/13 03:41:13;;;;;;;52.45;28.95;;;;;;;;;;5020392;28;20033;-73
2022/12/13 03:43:39;;;;;;;58.45;33.22;;;;;;;;;;5023859;28;20044;-73
2022/12/13 03:46:06;;;;;;;57.00;32.42;;;;;;;;;;5021175;28;20044;-73
2022/12/13 03:48:32;;;;;;;56.90;31.83;;;;;;;;;;5016727;28;20568;-73
2022/12/13 03:50:58;;;;;;;55.30;32.03;;;;;;;;;;5022846;28;20034;-73
2022/12/13 03:53:24;;;;;;;55.00;32.58;;;;;;;;;;5020574;28;20495;-73
2022/12/13 03:55:50;;;;;;;52.47;29.30;;;;;;;;;;5025131;28;20041;-73
2022/12/13 03:58:17;;;;;;;52.28;28.88;;;;;;;;;;5023251;28;20040;-73
2022/12/13 04:00:43;;;;;;;50.05;27.77;;;;;;;;;;5020239;28;20056;-73
2022/12/13 04:03:09;;;;;;;55.55;30.83;;;;;;;;;;5024584;28;20449;-73
2022/12/13 04:05:35;;;;;;;55.70;28.85;;;;;;;;;;5018814;28;20042;-73
2022/12/13 04:08:01;;;;;;;50.28;28.33;;;;;;;;;;5023935;28;20034;-74
2022/12/13 04:10:27;;;;;;;53.50;30.02;;;;;;;;;;5004386;28;20529;-73
2022/12/13 04:15:38;;;;;;;61.22;33.05;;;;;;;;;;5022973;28;20133;-73
2022/12/13 04:18:04;;;;;;;48.40;27.45;;;;;;;;;;5010460;28;20108;-73
2022/12/13 04:20:30;;;;;;;54.88;30.42;;;;;;;;;;5018621;28;20045;-73
2022/12/13 04:22:56;;;;;;;56.97;33.75;;;;;;;;;;5023458;28;20037;-73
2022/12/13 04:25:22;;;;;;;51.70;28.67;;;;;;;;;;5024444;28;20060;-73
2022/12/13 04:27:49;;;;;;;53.50;29.60;;;;;;;;;;5019702;28;20492;-73
2022/12/13 04:30:15;;;;;;;55.53;30.08;;;;;;;;;;5017841;28;20036;-73
2022/12/13 04:32:40;;;;;;;70.47;37.22;;;;;;;;;;5018388;28;20034;-73
2022/12/13 04:35:07;;;;;;;69.55;37.75;;;;;;;;;;5019171;28;20032;-74
2022/12/13 04:37:33;;;;;;;60.00;34.13;;;;;;;;;;5023729;28;20045;-73
2022/12/13 04:39:59;;;;;;;57.65;32.33;;;;;;;;;;5024486;28;20506;-73
2022/12/13 04:42:25;;;;;;;55.65;33.00;;;;;;;;;;5022283;28;20644;-73
2022/12/13 04:44:51;;;;;;;54.40;29.52;;;;;;;;;;5020972;28;20033;-73
2022/12/13 04:47:17;;;;;;;52.47;29.30;;;;;;;;;;5024593;28;20034;-73
2022/12/13 04:49:43;;;;;;;58.05;31.70;;;;;;;;;;5029364;28;20367;-73
2022/12/13 04:52:09;;;;;;;52.92;30.77;;;;;;;;;;5023901;28;20180;-73
2022/12/13 04:54:35;;;;;;;62.38;33.17;;;;;;;;;;5026225;28;20026;-73
2022/12/13 04:57:01;;;;;;;62.90;32.50;;;;;;;;;;5021611;28;20108;-73
2022/12/13 04:59:27;;;;;;;59.92;33.58;;;;;;;;;;5026241;28;20148;-73
2022/12/13 05:01:53;;;;;;;61.10;32.17;;;;;;;;;;5027619;28;20489;-73
2022/12/13 05:04:19;;;;;;;55.22;31.02;;;;;;;;;;5025231;28;20037;-73
2022/12/13 05:06:45;;;;;;;56.22;33.40;;;;;;;;;;5027996;28;20256;-73
2022/12/13 05:09:11;;;;;;;55.63;33.10;;;;;;;;;;5024707;28;20038;-73
2022/12/13 05:11:37;;;;;;;58.38;32.08;;;;;;;;;;5024555;28;20034;-73
2022/12/13 05:14:03;;;;;;;55.92;30.80;;;;;;;;;;5024111;28;20477;-73
2022/12/13 05:16:29;;;;;;;57.72;31.75;;;;;;;;;;5019360;28;20033;-73
2022/12/13 05:18:55;;;;;;;65.30;35.90;;;;;;;;;;5027340;28;20076;-73
2022/12/13 05:21:21;;;;;;;69.28;38.42;;;;;;;;;;5023926;28;20964;-73
2022/12/13 05:23:47;;;;;;;64.07;35.45;;;;;;;;;;5024239;28;20113;-73
2022/12/13 05:26:13;;;;;;;62.25;35.10;;;;;;;;;;5027009;28;20478;-73
2022/12/13 05:28:39;;;;;;;61.28;34.67;;;;;;;;;;5025012;28;20056;-73
2022/12/13 05:31:06;;;;;;;114.22;49.03;;;;;;;;;;5018328;28;20083;-73
2022/12/13 05:33:32;;;;;;;68.93;35.63;;;;;;;;;;5025746;28;20030;-73
2022/12/13 05:35:58;;;;;;;71.45;39.03;;;;;;;;;;5028378;28;20029;-73
2022/12/13 05:38:24;;;;;;;88.45;43.20;;;;;;;;;;5024193;28;20167;-73
2022/12/13 05:40:51;;;;;;;90.60;42.95;;;;;;;;;;5018537;28;20053;-73
2022/12/13 05:43:17;;;;;;;84.13;42.13;;;;;;;;;;5022339;28;20033;-72
2022/12/13 05:45:43;;;;;;;84.80;41.83;;;;;;;;;;5017149;28;20034;-72
2022/12/13 05:48:09;;;;;;;63.30;34.53;;;;;;;;;;5022617;28;20707;-73
2022/12/13 05:50:37;;;;;;;62.33;35.03;;;;;;;;;;5025841;28;20046;-73
2022/12/13 05:53:03;;;;;;;63.05;34.95;;;;;;;;;;5021898;28;20017;-73
2022/12/13 05:55:29;;;;;;;65.57;36.67;;;;;;;;;;5003894;28;20819;-73
2022/12/13 05:57:55;;;;;;;70.93;36.25;;;;;;;;;;5026222;28;20040;-73
2022/12/13 06:00:21;;;;;;;62.97;36.53;;;;;;;;;;5025159;28;20037;-73
2022/12/13 06:02:47;;;;;;;61.15;35.72;;;;;;;;;;5028128;28;20037;-73
2022/12/13 06:05:13;;;;;;;62.92;36.10;;;;;;;;;;5025956;28;20033;-73
2022/12/13 06:07:39;;;;;;;72.18;37.85;;;;;;;;;;5023649;28;20492;-73
2022/12/13 06:10:05;;;;;;;61.22;33.47;;;;;;;;;;5025881;28;20049;-73
2022/12/13 06:12:31;;;;;;;71.85;38.25;;;;;;;;;;5024550;28;20034;-73
2022/12/13 06:14:57;;;;;;;68.53;39.55;;;;;;;;;;5026933;28;20037;-73
2022/12/13 06:17:24;;;;;;;75.07;41.42;;;;;;;;;;5018884;28;20080;-73
2022/12/13 06:19:53;;;;;;;68.75;38.22;;;;;;;;;;5018672;28;20048;-73
2022/12/13 06:22:19;;;;;;;66.93;39.92;;;;;;;;;;5018646;28;20036;-73
2022/12/13 06:24:45;;;;;;;68.95;40.03;;;;;;;;;;5022475;28;20037;-73
2022/12/13 06:27:11;;;;;;;65.32;35.40;;;;;;;;;;5015587;28;20036;-73
2022/12/13 06:29:37;;;;;;;66.70;37.42;;;;;;;;;;5021596;28;20030;-73
2022/12/13 06:32:03;;;;;;;61.55;35.38;;;;;;;;;;5022578;28;20473;-74
2022/12/13 06:34:30;;;;;;;64.53;35.95;;;;;;;;;;5021460;28;20074;-73
2022/12/13 06:36:56;;;;;;;62.45;36.08;;;;;;;;;;5021594;28;20036;-73
2022/12/13 06:39:22;;;;;;;65.43;39.10;;;;;;;;;;5020176;28;20034;-72
2022/12/13 06:41:48;;;;;;;67.95;38.78;;;;;;;;;;5021120;28;20372;-73
2022/12/13 06:44:14;;;;;;;87.97;41.15;;;;;;;;;;5020664;28;20037;-73
2022/12/13 06:46:40;;;;;;;67.65;39.33;;;;;;;;;;5023910;28;20527;-72
2022/12/13 06:49:06;;;;;;;79.55;42.85;;;;;;;;;;5019758;28;20058;-73
2022/12/13 06:51:33;;;;;;;73.95;40.72;;;;;;;;;;5019673;28;20443;-73
2022/12/13 06:54:01;;;;;;;83.75;43.20;;;;;;;;;;5022655;28;20101;-73
2022/12/13 06:56:27;;;;;;;73.95;39.22;;;;;;;;;;5023775;28;20464;-73
2022/12/13 06:58:53;;;;;;;82.45;43.20;;;;;;;;;;5020747;28;20034;-73
2022/12/13 07:01:19;;;;;;;66.68;36.72;;;;;;;;;;5020381;28;20473;-73
2022/12/13 07:03:45;;;;;;;60.70;35.67;;;;;;;;;;5025079;28;20041;-72
2022/12/13 07:06:14;;;;;;;66.43;38.92;;;;;;;;;;5019891;28;20079;-73
2022/12/13 07:08:41;;;;;;;78.07;40.70;;;;;;;;;;5025035;28;20037;-73
2022/12/13 07:11:07;;;;;;;73.50;39.28;;;;;;;;;;5022531;28;20723;-73
2022/12/13 07:13:34;;;;;;;64.15;37.35;;;;;;;;;;5021659;28;20075;-73
2022/12/13 07:16:00;;;;;;;61.10;34.75;;;;;;;;;;5022881;28;20416;-73
2022/12/13 07:18:26;;;;;;;66.25;37.25;;;;;;;;;;5021681;28;20041;-73
2022/12/13 07:20:52;;;;;;;69.25;40.38;;;;;;;;;;5024531;28;20029;-73
2022/12/13 07:23:18;;;;;;;74.20;41.53;;;;;;;;;;5023953;28;20071;-73
2022/12/13 07:25:51;;;;;;;59.25;34.20;;;;;;;;;;5023585;28;20420;-73
2022/12/13 07:28:17;;;;;;;67.40;39.85;;;;;;;;;;5021753;28;20029;-72
2022/12/13 07:30:43;;;;;;;63.10;33.75;;;;;;;;;;5020350;28;20067;-73
2022/12/13 07:33:09;;;;;;;74.53;39.92;;;;;;;;;;5007187;28;20112;-72
2022/12/13 07:35:35;;;;;;;58.55;33.83;;;;;;;;;;5022620;28;20484;-73
2022/12/13 07:38:01;;;;;;;58.78;34.78;;;;;;;;;;5017191;28;20075;-72
2022/12/13 07:40:27;;;;;;;69.85;38.63;;;;;;;;;;5024104;28;20799;-72
2022/12/13 07:42:54;;;;;;;72.65;41.30;;;;;;;;;;5018121;28;20037;-73
2022/12/13 07:45:20;;;;;;;72.30;39.38;;;;;;;;;;5019004;28;20140;-73
2022/12/13 07:47:46;;;;;;;72.93;38.42;;;;;;;;;;5023840;28;20033;-72
2022/12/13 07:50:13;;;;;;;55.42;30.50;;;;;;;;;;5018845;28;20029;-73
2022/12/13 07:52:39;;;;;;;67.30;37.20;;;;;;;;;;5021296;28;20068;-73
2022/12/13 07:55:06;;;;;;;73.00;39.20;;;;;;;;;;5024281;28;20037;-73
2022/12/13 07:57:32;;;;;;;60.35;33.70;;;;;;;;;;5023420;28;20064;-72
2022/12/13 07:59:58;;;;;;;60.05;35.97;;;;;;;;;;5023679;28;20033;-73
2022/12/13 08:02:24;;;;;;;70.18;35.55;;;;;;;;;;5022111;28;20049;-72
2022/12/13 08:04:50;;;;;;;63.72;33.65;;;;;;;;;;5022549;28;20125;-73
2022/12/13 08:07:16;;;;;;;69.28;34.38;;;;;;;;;;5020643;28;20511;-72
2022/12/13 08:09:42;;;;;;;63.15;36.15;;;;;;;;;;5003321;28;20056;-73
2022/12/13 08:12:08;;;;;;;68.05;37.25;;;;;;;;;;5023325;28;20125;-72
2022/12/13 08:14:35;;;;;;;57.05;33.40;;;;;;;;;;5021891;28;20216;-73
2022/12/13 08:17:01;;;;;;;57.42;33.00;;;;;;;;;;5022059;28;20080;-73
2022/12/13 08:19:27;;;;;;;58.15;33.63;;;;;;;;;;5001997;28;20040;-73
2022/12/13 08:21:54;;;;;;;56.72;33.90;;;;;;;;;;5024132;28;20033;-73
2022/12/13 08:24:20;;;;;;;64.70;35.05;;;;;;;;;;5020043;28;20033;-73
2022/12/13 08:26:46;;;;;;;55.65;33.08;;;;;;;;;;5021071;28;20053;-73
2022/12/13 08:29:13;;;;;;;68.65;37.17;;;;;;;;;;5020366;28;20029;-72
2022/12/13 08:31:39;;;;;;;73.13;40.15;;;;;;;;;;5020436;28;20065;-72
2022/12/13 08:34:05;;;;;;;64.60;38.13;;;;;;;;;;5020613;28;20041;-72
2022/12/13 08:36:31;;;;;;;70.05;37.42;;;;;;;;;;5022068;28;20037;-73
2022/12/13 08:38:57;;;;;;;64.05;36.33;;;;;;;;;;5021435;28;20473;-72
2022/12/13 08:41:23;;;;;;;71.88;37.17;;;;;;;;;;5020120;28;20038;-73
2022/12/13 08:43:50;;;;;;;61.53;36.92;;;;;;;;;;5023334;28;20112;-73
2022/12/13 08:46:16;;;;;;;57.92;34.03;;;;;;;;;;5019998;28;20164;-73
2022/12/13 08:48:42;;;;;;;60.55;35.38;;;;;;;;;;5022275;28;20026;-73
2022/12/13 08:51:13;;;;;;;66.93;35.17;;;;;;;;;;5022232;28;20037;-73
2022/12/13 08:53:39;;;;;;;61.27;33.80;;;;;;;;;;5023394;28;20025;-72
2022/12/13 08:56:08;;;;;;;60.80;34.83;;;;;;;;;;5020805;28;20785;-73
2022/12/13 08:58:34;;;;;;;65.05;38.35;;;;;;;;;;5023782;28;20452;-73
2022/12/13 09:01:00;;;;;;;62.53;36.35;;;;;;;;;;5020639;28;20044;-73
2022/12/13 09:03:26;;;;;;;63.88;36.45;;;;;;;;;;5020248;28;20037;-72
2022/12/13 09:05:52;;;;;;;61.20;37.42;;;;;;;;;;5019421;28;20113;-72
2022/12/13 09:08:18;;;;;;;64.50;34.60;;;;;;;;;;5021363;28;20092;-72
2022/12/13 09:10:45;;;;;;;65.15;35.75;;;;;;;;;;5020352;28;20499;-73
2022/12/13 09:13:11;;;;;;;56.17;33.08;;;;;;;;;;5020512;28;20167;-73
2022/12/13 09:15:38;;;;;;;74.57;40.13;;;;;;;;;;5023064;28;20040;-72
2022/12/13 09:18:04;;;;;;;66.93;38.38;;;;;;;;;;5020610;28;20029;-73
2022/12/13 09:20:30;;;;;;;63.38;37.10;;;;;;;;;;5023527;28;20543;-73
2022/12/13 09:22:56;;;;;;;65.05;36.72;;;;;;;;;;5021271;28;20033;-73
2022/12/13 09:25:22;;;;;;;67.43;38.63;;;;;;;;;;5016980;28;20498;-72
2022/12/13 09:27:48;;;;;;;69.47;36.92;;;;;;;;;;5014847;28;20043;-73
2022/12/13 09:30:14;;;;;;;72.82;40.22;;;;;;;;;;5020563;28;20029;-73
2022/12/13 09:32:42;;;;;;;63.10;37.42;;;;;;;;;;5022502;28;20117;-72
2022/12/13 09:35:08;;;;;;;69.10;39.75;;;;;;;;;;5024085;28;20043;-72
2022/12/13 09:37:35;;;;;;;70.45;41.30;;;;;;;;;;5025634;28;20048;-73
2022/12/13 09:40:01;;;;;;;63.47;39.75;;;;;;;;;;5025045;28;20026;-73
2022/12/13 09:42:29;;;;;;;73.45;41.28;;;;;;;;;;5023622;28;20041;-73
2022/12/13 09:44:58;;;;;;;65.50;34.97;;;;;;;;;;5026667;28;20034;-73
2022/12/13 09:47:30;;;;;;;59.95;34.17;;;;;;;;;;5023271;28;20038;-73
2022/12/13 09:49:57;;;;;;;60.80;34.97;;;;;;;;;;5027391;28;20056;-72
2022/12/13 09:52:25;;;;;;;62.17;33.90;;;;;;;;;;5024641;28;20033;-73
2022/12/13 09:54:55;;;;;;;62.90;37.08;;;;;;;;;;5021888;28;20464;-73
2022/12/13 09:57:30;;;;;;;60.65;34.15;;;;;;;;;;5022310;28;20071;-73
2022/12/13 09:59:57;;;;;;;72.88;39.70;;;;;;;;;;5021973;28;20025;-73
2022/12/13 10:02:30;;;;;;;58.83;35.75;;;;;;;;;;5024373;28;20087;-72
2022/12/13 10:05:13;;;;;;;62.97;33.97;;;;;;;;;;5021004;28;20029;-73
2022/12/13 10:07:39;;;;;;;70.63;38.17;;;;;;;;;;5024910;28;20096;-72
2022/12/13 10:10:05;;;;;;;63.90;35.72;;;;;;;;;;5021728;28;20116;-73
2022/12/13 10:12:32;;;;;;;63.55;36.40;;;;;;;;;;5024937;28;20033;-73
2022/12/13 10:15:00;;;;;;;64.35;37.38;;;;;;;;;;5023041;28;20056;-73
2022/12/13 10:17:28;;;;;;;61.42;35.33;;;;;;;;;;5024323;28;20033;-73
2022/12/13 10:19:54;;;;;;;63.05;37.30;;;;;;;;;;5022660;28;20100;-73
2022/12/13 10:22:21;;;;;;;66.57;38.13;;;;;;;;;;5025508;28;20124;-72
2022/12/13 10:24:47;;;;;;;73.07;42.88;;;;;;;;;;5017862;28;20021;-73
2022/12/13 10:27:15;;;;;;;66.05;38.47;;;;;;;;;;5026815;28;20075;-73
2022/12/13 10:29:58;;;;;;;64.10;37.28;;;;;;;;;;5024368;28;20152;-73
2022/12/13 10:32:24;;;;;;;62.88;37.53;;;;;;;;;;5021459;28;20384;-72
2022/12/13 10:34:50;;;;;;;66.85;36.67;;;;;;;;;;5021691;28;20033;-72
2022/12/13 10:37:26;;;;;;;60.78;36.13;;;;;;;;;;5024247;28;20058;-73
2022/12/13 10:39:52;;;;;;;60.72;34.33;;;;;;;;;;5019551;28;20128;-72
2022/12/13 10:42:19;;;;;;;62.97;36.00;;;;;;;;;;5023107;28;20112;-73
2022/12/13 10:44:45;;;;;;;63.50;36.35;;;;;;;;;;5023352;28;20036;-72
2022/12/13 10:47:20;;;;;;;63.45;37.28;;;;;;;;;;5019851;28;20112;-72
2022/12/13 10:49:50;;;;;;;63.25;35.40;;;;;;;;;;5023265;28;20029;-72
2022/12/13 10:52:22;;;;;;;61.80;37.10;;;;;;;;;;5022843;28;20488;-72
2022/12/13 10:54:49;;;;;;;65.95;37.30;;;;;;;;;;5024085;28;20030;-73
2022/12/13 10:57:15;;;;;;;62.13;35.60;;;;;;;;;;5022095;28;20099;-73
2022/12/13 10:59:42;;;;;;;66.38;39.08;;;;;;;;;;5024880;28;20037;-72
2022/12/13 11:02:26;;;;;;;70.13;42.47;;;;;;;;;;5022512;28;20030;-72
2022/12/13 11:04:53;;;;;;;67.20;40.83;;;;;;;;;;5021085;28;20148;-72
2022/12/13 11:07:28;;;;;;;70.30;41.10;;;;;;;;;;5020910;28;20038;-72
2022/12/13 11:09:54;;;;;;;68.38;40.90;;;;;;;;;;5020865;28;20057;-73
2022/12/13 11:12:22;;;;;;;66.68;39.67;;;;;;;;;;5024728;28;20452;-73
2022/12/13 11:14:52;;;;;;;61.47;36.47;;;;;;;;;;5023496;28;20029;-72
2022/12/13 11:17:20;;;;;;;57.70;33.45;;;;;;;;;;5020689;28;20042;-72
2022/12/13 11:19:48;;;;;;;58.38;33.15;;;;;;;;;;5019847;28;20128;-73
2022/12/13 11:22:28;;;;;;;69.53;40.42;;;;;;;;;;5021850;28;20033;-72
2022/12/13 11:25:20;;;;;;;68.47;39.70;;;;;;;;;;5022813;28;20057;-73
2022/12/13 11:27:49;;;;;;;63.38;36.50;;;;;;;;;;5016075;28;20053;-72
2022/12/13 11:30:32;;;;;;;61.90;36.00;;;;;;;;;;5017569;28;20025;-72
2022/12/13 11:33:11;;;;;;;59.45;35.72;;;;;;;;;;5021032;28;20034;-72
2022/12/13 11:35:40;;;;;;;67.60;38.40;;;;;;;;;;5018504;28;20875;-72
2022/12/13 11:38:15;;;;;;;62.70;36.58;;;;;;;;;;5022082;28;20044;-72
2022/12/13 11:40:43;;;;;;;60.30;35.58;;;;;;;;;;5020519;28;20029;-72
2022/12/13 11:43:45;;;;;;;60.78;35.85;;;;;;;;;;5023719;28;20033;-72
2022/12/13 11:46:26;;;;;;;48.67;27.13;;;;;;;;;;4936959;28;20052;-72
2022/12/13 11:49:18;;;;;;;62.33;35.00;;;;;;;;;;5010889;28;20112;-73
2022/12/13 11:51:48;;;;;;;62.15;34.83;;;;;;;;;;5015662;28;20594;-73
2022/12/13 11:54:25;;;;;;;60.25;33.70;;;;;;;;;;5019205;28;20022;-73
2022/12/13 11:56:53;;;;;;;63.92;39.15;;;;;;;;;;5020603;28;20048;-72
2022/12/13 11:59:36;;;;;;;59.42;35.20;;;;;;;;;;5022106;28;20029;-72
2022/12/13 12:02:14;;;;;;;59.22;33.60;;;;;;;;;;5021452;28;20041;-72
2022/12/13 12:04:48;;;;;;;63.83;38.42;;;;;;;;;;5018946;28;20040;-72
2022/12/13 12:07:16;;;;;;;67.25;38.10;;;;;;;;;;5020924;28;20041;-72
2022/12/13 12:09:49;;;;;;;69.05;37.72;;;;;;;;;;5011141;28;20177;-72
2022/12/13 12:12:25;;;;;;;66.95;40.00;;;;;;;;;;5000485;28;20065;-73
2022/12/13 12:14:57;;;;;;;60.55;37.50;;;;;;;;;;5001852;28;20026;-73
2022/12/13 12:17:24;;;;;;;63.22;35.80;;;;;;;;;;5000467;28;20047;-73
2022/12/13 12:19:52;;;;;;;60.50;35.47;;;;;;;;;;4996298;28;20045;-72
2022/12/13 12:22:37;;;;;;;63.70;37.92;;;;;;;;;;5002626;28;20726;-72
2022/12/13 12:25:11;;;;;;;63.10;36.17;;;;;;;;;;5001319;28;20076;-72
2022/12/13 12:27:46;;;;;;;66.55;38.95;;;;;;;;;;4997055;28;20037;-73
2022/12/13 12:30:31;;;;;;;64.57;37.88;;;;;;;;;;4993609;28;20036;-72
2022/12/13 12:33:00;;;;;;;68.93;39.13;;;;;;;;;;4995686;28;20678;-73
2022/12/13 12:35:38;;;;;;;77.05;40.72;;;;;;;;;;4994129;28;20042;-72
2022/12/13 12:38:10;;;;;;;63.40;37.25;;;;;;;;;;4999019;28;20054;-73
2022/12/13 12:40:55;;;;;;;62.00;37.33;;;;;;;;;;5000360;28;20037;-72
2022/12/13 12:43:36;;;;;;;69.07;41.53;;;;;;;;;;4998316;28;20121;-73
2022/12/13 12:46:05;;;;;;;70.20;38.63;;;;;;;;;;4992325;28;20038;-73
2022/12/13 12:48:50;;;;;;;67.70;39.72;;;;;;;;;;4999366;28;20116;-73
2022/12/13 12:51:36;;;;;;;62.78;38.88;;;;;;;;;;4997887;28;20084;-73
2022/12/13 12:54:17;;;;;;;66.95;39.35;;;;;;;;;;4999831;28;20727;-73
2022/12/13 12:56:50;;;;;;;72.32;42.30;;;;;;;;;;4999078;28;20042;-72
2022/12/13 12:59:19;;;;;;;86.05;49.20;;;;;;;;;;4998559;28;20037;-72
2022/12/13 13:01:51;;;;;;;74.28;44.53;;;;;;;;;;4995747;28;20137;-73
2022/12/13 13:04:20;;;;;;;72.57;42.75;;;;;;;;;;4997907;28;20065;-72
2022/12/13 13:07:18;;;;;;;92.28;52.30;;;;;;;;;;4995697;28;20680;-72
2022/12/13 13:09:44;;;;;;;82.15;46.55;;;;;;;;;;4990660;28;20453;-73
2022/12/13 13:12:11;;;;;;;69.05;39.97;;;;;;;;;;5025468;28;20081;-73
2022/12/13 13:14:38;;;;;;;79.70;45.08;;;;;;;;;;5023702;28;20021;-73
2022/12/13 13:17:19;;;;;;;79.95;46.30;;;;;;;;;;5026796;28;20086;-72
2022/12/13 13:19:46;;;;;;;74.32;44.58;;;;;;;;;;5023883;28;20083;-72
2022/12/13 13:22:31;;;;;;;68.78;39.20;;;;;;;;;;5022569;28;20037;-72
2022/12/13 13:24:59;;;;;;;69.28;38.95;;;;;;;;;;5020335;28;20029;-72
2022/12/13 13:27:31;;;;;;;73.78;44.28;;;;;;;;;;5023602;28;20043;-73
2022/12/13 13:29:57;;;;;;;;;;;;;;;;;;5022686;28;20025;-72
2022/12/13 13:32:27;;;;;;;83.03;45.92;;;;;;;;;;5026551;28;19924;-73
2022/12/13 13:34:54;;;;;;;85.47;48.80;;;;;;;;;;5022596;28;20045;-72
2022/12/13 13:37:27;;;;;;;73.32;41.85;;;;;;;;;;5027222;28;20029;-72
2022/12/13 13:39:55;;;;;;;68.90;41.88;;;;;;;;;;5023138;28;20104;-73
2022/12/13 13:42:22;;;;;;;75.90;43.58;;;;;;;;;;5027481;28;20136;-72
2022/12/13 13:44:48;;;;;;;83.78;44.63;;;;;;;;;;5026328;28;20564;-72
2022/12/13 13:47:31;;;;;;;73.38;40.80;;;;;;;;;;5019987;28;20050;-72
2022/12/13 13:50:12;;;;;;;73.05;43.17;;;;;;;;;;5022470;28;20033;-73
2022/12/13 13:52:43;;;;;;;70.05;43.00;;;;;;;;;;5023448;28;20040;-73
2022/12/13 13:55:28;;;;;;;73.38;42.38;;;;;;;;;;5022755;28;20033;-73
2022/12/13 13:57:54;;;;;;;66.28;40.17;;;;;;;;;;5023125;28;20033;-73
2022/12/13 14:00:46;;;;;;;86.03;46.47;;;;;;;;;;5023459;28;20064;-72
2022/12/13 14:03:28;;;;;;;72.22;41.75;;;;;;;;;;5024248;28;20033;-73
2022/12/13 14:06:12;;;;;;;70.38;40.83;;;;;;;;;;5023549;28;20042;-73
2022/12/13 14:08:41;;;;;;;78.38;44.65;;;;;;;;;;5021879;28;20075;-72
2022/12/13 14:11:10;;;;;;;83.22;47.03;;;;;;;;;;5019539;28;20054;-72
2022/12/13 14:13:49;;;;;;;73.45;42.38;;;;;;;;;;5023710;28;20065;-72
2022/12/13 14:16:33;;;;;;;72.88;43.17;;;;;;;;;;5021944;28;20045;-72
2022/12/13 14:19:37;;;;;;;80.25;45.42;;;;;;;;;;5022549;28;20567;-72
2022/12/13 14:22:22;;;;;;;70.53;41.13;;;;;;;;;;4981572;28;20053;-72
2022/12/13 14:24:55;;;;;;;77.88;46.33;;;;;;;;;;4984302;28;20423;-72
2022/12/13 14:27:21;;;;;;;73.68;41.50;;;;;;;;;;5004084;28;20759;-73
2022/12/13 14:29:48;;;;;;;69.60;40.13;;;;;;;;;;5024325;28;20033;-73
2022/12/13 14:32:31;;;;;;;73.22;43.00;;;;;;;;;;5023029;28;20037;-73
2022/12/13 14:34:59;;;;;;;70.88;42.28;;;;;;;;;;5024583;28;20184;-72